sensor_id;sensor_type;location;lat;lon;timestamp;pressure;altitude;pressure_sealevel;temperature;humidity
73594;BME280;64760;53.404;23.498;2023-03-21T00:02:05;99194.34;;;7.49;95.25
73594;BME280;64760;53.404;23.498;2023-03-21T00:04:31;99204.31;;;7.62;95.06
73594;BME280;64760;53.404;23.498;2023-03-21T00:06:58;99204.44;;;7.54;95.41
73594;BME280;64760;53.404;23.498;2023-03-21T00:09:24;99194.16;;;7.51;95.13
73594;BME280;64760;53.404;23.498;2023-03-21T00:11:51;99196.56;;;7.46;94.72
73594;BME280;64760;53.404;23.498;2023-03-21T00:14:18;99200.00;;;7.40;94.83
73594;BME280;64760;53.404;23.498;2023-03-21T00:16:46;99193.72;;;7.47;94.24
73594;BME280;64760;53.404;23.498;2023-03-21T00:19:18;99188.38;;;7.47;94.51
73594;BME280;64760;53.404;23.498;2023-03-21T00:21:46;99185.63;;;7.41;94.21
73594;BME280;64760;53.404;23.498;2023-03-21T00:24:12;99194.97;;;7.30;95.03
73594;BME280;64760;53.404;23.498;2023-03-21T00:26:39;99188.06;;;7.36;94.79
73594;BME280;64760;53.404;23.498;2023-03-21T00:29:05;99186.66;;;7.40;94.68
73594;BME280;64760;53.404;23.498;2023-03-21T00:31:32;99190.06;;;7.34;95.16
73594;BME280;64760;53.404;23.498;2023-03-21T00:33:59;99194.78;;;7.32;95.26
73594;BME280;64760;53.404;23.498;2023-03-21T00:36:26;99198.13;;;7.19;95.01
73594;BME280;64760;53.404;23.498;2023-03-21T00:38:53;99203.28;;;7.06;94.61
73594;BME280;64760;53.404;23.498;2023-03-21T00:41:20;99198.03;;;7.13;93.80
73594;BME280;64760;53.404;23.498;2023-03-21T00:43:46;99191.66;;;6.92;93.42
73594;BME280;64760;53.404;23.498;2023-03-21T00:46:13;99200.66;;;6.91;93.21
73594;BME280;64760;53.404;23.498;2023-03-21T00:48:39;99207.56;;;6.86;93.37
73594;BME280;64760;53.404;23.498;2023-03-21T00:51:13;99205.38;;;6.75;93.40
73594;BME280;64760;53.404;23.498;2023-03-21T00:53:41;99207.66;;;6.78;93.70
73594;BME280;64760;53.404;23.498;2023-03-21T00:56:08;99210.31;;;6.78;93.52
73594;BME280;64760;53.404;23.498;2023-03-21T00:58:35;99221.06;;;6.70;93.68
73594;BME280;64760;53.404;23.498;2023-03-21T01:01:02;99210.63;;;6.68;94.35
73594;BME280;64760;53.404;23.498;2023-03-21T01:03:29;99212.53;;;6.74;94.27
73594;BME280;64760;53.404;23.498;2023-03-21T01:05:55;99222.00;;;6.77;94.49
73594;BME280;64760;53.404;23.498;2023-03-21T01:08:34;99219.06;;;6.72;94.51
73594;BME280;64760;53.404;23.498;2023-03-21T01:11:14;99212.09;;;6.56;95.00
73594;BME280;64760;53.404;23.498;2023-03-21T01:13:44;99219.31;;;6.62;95.50
73594;BME280;64760;53.404;23.498;2023-03-21T01:16:11;99208.69;;;6.77;95.19
73594;BME280;64760;53.404;23.498;2023-03-21T01:18:40;99213.72;;;6.86;95.10
73594;BME280;64760;53.404;23.498;2023-03-21T01:21:12;99211.44;;;6.69;94.47
73594;BME280;64760;53.404;23.498;2023-03-21T01:23:40;99221.34;;;6.75;94.61
73594;BME280;64760;53.404;23.498;2023-03-21T01:26:09;99216.84;;;6.75;94.44
73594;BME280;64760;53.404;23.498;2023-03-21T01:28:37;99209.41;;;6.71;94.21
73594;BME280;64760;53.404;23.498;2023-03-21T01:31:04;99215.19;;;6.59;94.28
73594;BME280;64760;53.404;23.498;2023-03-21T01:33:32;99214.91;;;6.69;94.76
73594;BME280;64760;53.404;23.498;2023-03-21T01:35:59;99217.84;;;6.74;94.57
73594;BME280;64760;53.404;23.498;2023-03-21T01:38:28;99216.94;;;6.82;94.36
73594;BME280;64760;53.404;23.498;2023-03-21T01:40:55;99208.03;;;6.60;93.94
73594;BME280;64760;53.404;23.498;2023-03-21T01:43:29;99211.69;;;6.74;94.23
73594;BME280;64760;53.404;23.498;2023-03-21T01:46:20;99209.59;;;6.84;93.57
73594;BME280;64760;53.404;23.498;2023-03-21T01:49:24;99205.38;;;6.75;93.41
73594;BME280;64760;53.404;23.498;2023-03-21T01:52:05;99195.25;;;6.70;93.08
73594;BME280;64760;53.404;23.498;2023-03-21T01:54:35;99203.25;;;6.70;93.51
73594;BME280;64760;53.404;23.498;2023-03-21T01:57:08;99207.75;;;6.70;93.55
73594;BME280;64760;53.404;23.498;2023-03-21T01:59:47;99197.03;;;6.63;93.36
73594;BME280;64760;53.404;23.498;2023-03-21T02:02:26;99209.41;;;6.71;93.44
73594;BME280;64760;53.404;23.498;2023-03-21T02:05:47;99216.50;;;6.64;93.41
73594;BME280;64760;53.404;23.498;2023-03-21T02:08:22;99197.41;;;6.60;93.52
73594;BME280;64760;53.404;23.498;2023-03-21T02:10:50;99200.41;;;6.57;93.67
73594;BME280;64760;53.404;23.498;2023-03-21T02:13:28;99197.50;;;6.52;93.94
73594;BME280;64760;53.404;23.498;2023-03-21T02:16:08;99192.91;;;6.60;93.72
73594;BME280;64760;53.404;23.498;2023-03-21T02:24:23;99189.03;;;6.63;94.06
73594;BME280;64760;53.404;23.498;2023-03-21T02:27:23;99197.03;;;6.63;93.77
73594;BME280;64760;53.404;23.498;2023-03-21T02:46:54;99185.66;;;6.40;94.43
73594;BME280;64760;53.404;23.498;2023-03-21T02:49:44;99195.91;;;6.43;94.59
73594;BME280;64760;53.404;23.498;2023-03-21T02:52:18;99192.78;;;6.39;95.03
73594;BME280;64760;53.404;23.498;2023-03-21T02:54:47;99195.00;;;6.36;94.73
73594;BME280;64760;53.404;23.498;2023-03-21T02:57:20;99178.13;;;6.29;95.06
73594;BME280;64760;53.404;23.498;2023-03-21T02:59:49;99190.75;;;6.41;95.56
73594;BME280;64760;53.404;23.498;2023-03-21T03:02:22;99186.56;;;6.47;94.99
73594;BME280;64760;53.404;23.498;2023-03-21T03:04:50;99190.69;;;6.49;94.74
73594;BME280;64760;53.404;23.498;2023-03-21T03:07:39;99187.31;;;6.41;95.05
73594;BME280;64760;53.404;23.498;2023-03-21T03:18:54;99189.03;;;6.19;95.24
73594;BME280;64760;53.404;23.498;2023-03-21T03:26:43;99190.03;;;6.47;95.25
73594;BME280;64760;53.404;23.498;2023-03-21T03:29:14;99196.56;;;6.45;94.97
73594;BME280;64760;53.404;23.498;2023-03-21T03:31:49;99198.88;;;6.48;95.62
73594;BME280;64760;53.404;23.498;2023-03-21T03:34:21;99194.63;;;6.39;95.08
73594;BME280;64760;53.404;23.498;2023-03-21T03:36:52;99190.38;;;6.30;95.75
73594;BME280;64760;53.404;23.498;2023-03-21T03:39:28;99195.00;;;6.36;95.87
73594;BME280;64760;53.404;23.498;2023-03-21T03:42:02;99193.25;;;6.43;95.41
73594;BME280;64760;53.404;23.498;2023-03-21T03:44:35;99197.50;;;6.52;95.70
73594;BME280;64760;53.404;23.498;2023-03-21T03:47:06;99199.13;;;6.53;95.16
73594;BME280;64760;53.404;23.498;2023-03-21T03:49:42;99194.81;;;6.52;95.04
73594;BME280;64760;53.404;23.498;2023-03-21T03:52:28;99190.22;;;6.46;94.68
73594;BME280;64760;53.404;23.498;2023-03-21T03:55:05;99189.94;;;6.55;95.25
73594;BME280;64760;53.404;23.498;2023-03-21T03:57:37;99189.13;;;6.55;94.92
73594;BME280;64760;53.404;23.498;2023-03-21T04:00:05;99182.78;;;6.56;94.72
73594;BME280;64760;53.404;23.498;2023-03-21T04:02:50;99183.81;;;6.55;94.62
73594;BME280;64760;53.404;23.498;2023-03-21T04:05:21;99180.97;;;6.56;94.09
73594;BME280;64760;53.404;23.498;2023-03-21T04:07:47;99196.81;;;6.50;94.61
73594;BME280;64760;53.404;23.498;2023-03-21T04:10:18;99187.84;;;6.36;94.56
73594;BME280;64760;53.404;23.498;2023-03-21T04:12:45;99189.22;;;6.47;94.58
73594;BME280;64760;53.404;23.498;2023-03-21T04:15:21;99188.84;;;6.35;95.19
73594;BME280;64760;53.404;23.498;2023-03-21T04:17:53;99184.63;;;6.41;95.10
73594;BME280;64760;53.404;23.498;2023-03-21T04:20:20;99181.88;;;6.34;95.42
73594;BME280;64760;53.404;23.498;2023-03-21T04:22:46;99184.25;;;6.29;95.23
73594;BME280;64760;53.404;23.498;2023-03-21T04:25:14;99182.88;;;6.33;95.25
73594;BME280;64760;53.404;23.498;2023-03-21T04:27:41;99179.88;;;6.36;95.88
73594;BME280;64760;53.404;23.498;2023-03-21T04:30:39;99175.53;;;6.21;95.64
73594;BME280;64760;53.404;23.498;2023-03-21T04:33:12;99178.84;;;6.52;95.34
73594;BME280;64760;53.404;23.498;2023-03-21T04:35:42;99182.78;;;6.56;95.62
73594;BME280;64760;53.404;23.498;2023-03-21T04:38:12;99183.69;;;6.34;95.19
73594;BME280;64760;53.404;23.498;2023-03-21T04:40:39;99192.16;;;6.52;95.41
73594;BME280;64760;53.404;23.498;2023-03-21T04:43:06;99185.28;;;6.43;95.84
73594;BME280;64760;53.404;23.498;2023-03-21T04:45:36;99185.19;;;6.51;95.54
73594;BME280;64760;53.404;23.498;2023-03-21T04:51:46;99199.69;;;6.63;93.80
73594;BME280;64760;53.404;23.498;2023-03-21T04:54:17;99191.13;;;6.68;94.25
73594;BME280;64760;53.404;23.498;2023-03-21T04:56:44;99199.66;;;6.78;94.17
73594;BME280;64760;53.404;23.498;2023-03-21T04:59:13;99199.66;;;6.78;93.64
73594;BME280;64760;53.404;23.498;2023-03-21T05:01:40;99207.94;;;6.68;93.85
73594;BME280;64760;53.404;23.498;2023-03-21T05:04:09;99203.63;;;6.67;93.95
73594;BME280;64760;53.404;23.498;2023-03-21T05:06:36;99210.53;;;6.76;93.92
73594;BME280;64760;53.404;23.498;2023-03-21T05:09:03;99205.47;;;6.67;93.95
73594;BME280;64760;53.404;23.498;2023-03-21T05:11:36;99202.34;;;6.63;93.60
73594;BME280;64760;53.404;23.498;2023-03-21T05:14:04;99193.97;;;6.66;94.53
73594;BME280;64760;53.404;23.498;2023-03-21T05:16:31;99200.69;;;6.62;94.62
73594;BME280;64760;53.404;23.498;2023-03-21T05:19:00;99211.25;;;6.70;94.08
73594;BME280;64760;53.404;23.498;2023-03-21T05:21:32;99208.13;;;6.67;94.35
73594;BME280;64760;53.404;23.498;2023-03-21T05:24:18;99211.16;;;6.49;94.18
73594;BME280;64760;53.404;23.498;2023-03-21T05:26:47;99209.22;;;6.57;95.08
73594;BME280;64760;53.404;23.498;2023-03-21T05:29:21;99213.28;;;6.68;94.84
73594;BME280;64760;53.404;23.498;2023-03-21T05:32:06;99215.25;;;6.81;93.84
73594;BME280;64760;53.404;23.498;2023-03-21T05:34:33;99218.75;;;6.81;93.52
73594;BME280;64760;53.404;23.498;2023-03-21T05:37:01;99218.41;;;6.84;92.96
73594;BME280;64760;53.404;23.498;2023-03-21T05:39:39;99226.03;;;6.87;92.46
73594;BME280;64760;53.404;23.498;2023-03-21T05:42:12;99216.44;;;6.93;92.52
73594;BME280;64760;53.404;23.498;2023-03-21T05:44:38;99226.19;;;7.00;92.53
73594;BME280;64760;53.404;23.498;2023-03-21T05:47:08;99227.38;;;6.98;92.23
73594;BME280;64760;53.404;23.498;2023-03-21T05:49:41;99220.78;;;6.94;92.19
73594;BME280;64760;53.404;23.498;2023-03-21T05:52:08;99231.53;;;7.00;92.01
73594;BME280;64760;53.404;23.498;2023-03-21T05:54:35;99227.56;;;6.82;92.00
73594;BME280;64760;53.404;23.498;2023-03-21T05:57:03;99236.03;;;6.85;92.11
73594;BME280;64760;53.404;23.498;2023-03-21T05:59:50;99241.28;;;6.79;92.54
73594;BME280;64760;53.404;23.498;2023-03-21T06:02:18;99242.72;;;6.81;92.52
73594;BME280;64760;53.404;23.498;2023-03-21T06:04:46;99251.38;;;6.83;92.88
73594;BME280;64760;53.404;23.498;2023-03-21T06:07:13;99252.47;;;6.74;92.88
73594;BME280;64760;53.404;23.498;2023-03-21T06:09:40;99259.16;;;6.85;92.64
73594;BME280;64760;53.404;23.498;2023-03-21T06:12:07;99256.63;;;6.77;92.26
73594;BME280;64760;53.404;23.498;2023-03-21T06:14:59;99257.44;;;6.77;92.42
73594;BME280;64760;53.404;23.498;2023-03-21T06:17:31;99264.41;;;6.78;92.38
73594;BME280;64760;53.404;23.498;2023-03-21T06:20:03;99258.00;;;6.87;92.58
73594;BME280;64760;53.404;23.498;2023-03-21T06:22:39;99277.19;;;6.97;91.00
73594;BME280;64760;53.404;23.498;2023-03-21T06:25:06;99262.31;;;7.03;90.00
73594;BME280;64760;53.404;23.498;2023-03-21T06:27:34;99261.59;;;6.80;89.87
73594;BME280;64760;53.404;23.498;2023-03-21T06:30:02;99272.31;;;6.86;89.67
73594;BME280;64760;53.404;23.498;2023-03-21T06:32:34;99268.75;;;7.08;89.73
73594;BME280;64760;53.404;23.498;2023-03-21T06:35:08;99273.34;;;7.00;88.75
73594;BME280;64760;53.404;23.498;2023-03-21T06:37:36;99266.97;;;7.01;88.35
73594;BME280;64760;53.404;23.498;2023-03-21T06:40:03;99268.19;;;6.98;87.89
73594;BME280;64760;53.404;23.498;2023-03-21T06:42:31;99278.66;;;6.85;88.16
73594;BME280;64760;53.404;23.498;2023-03-21T06:45:05;99280.97;;;6.88;87.49
73594;BME280;64760;53.404;23.498;2023-03-21T06:47:32;99275.97;;;6.85;88.16
73594;BME280;64760;53.404;23.498;2023-03-21T06:49:59;99278.38;;;6.95;87.59
73594;BME280;64760;53.404;23.498;2023-03-21T06:52:26;99286.56;;;7.08;87.14
73594;BME280;64760;53.404;23.498;2023-03-21T06:54:53;99297.47;;;7.13;87.25
73594;BME280;64760;53.404;23.498;2023-03-21T06:57:21;99292.72;;;7.08;87.01
73594;BME280;64760;53.404;23.498;2023-03-21T06:59:49;99288.59;;;6.91;87.62
73594;BME280;64760;53.404;23.498;2023-03-21T07:02:22;99301.44;;;7.02;87.56
73594;BME280;64760;53.404;23.498;2023-03-21T07:05:21;99293.25;;;6.89;87.62
73594;BME280;64760;53.404;23.498;2023-03-21T07:07:47;99298.03;;;6.94;88.08
73594;BME280;64760;53.404;23.498;2023-03-21T07:10:14;99299.31;;;6.83;88.45
73594;BME280;64760;53.404;23.498;2023-03-21T07:13:03;99295.81;;;6.97;88.52
73594;BME280;64760;53.404;23.498;2023-03-21T07:15:38;99278.19;;;7.11;88.38
73594;BME280;64760;53.404;23.498;2023-03-21T07:18:05;99301.41;;;7.17;87.90
73594;BME280;64760;53.404;23.498;2023-03-21T07:20:35;99296.44;;;7.29;88.04
73594;BME280;64760;53.404;23.498;2023-03-21T07:23:04;99300.59;;;7.31;86.57
73594;BME280;64760;53.404;23.498;2023-03-21T07:25:31;99297.59;;;7.55;85.79
73594;BME280;64760;53.404;23.498;2023-03-21T07:27:59;99295.88;;;7.69;83.06
73594;BME280;64760;53.404;23.498;2023-03-21T07:30:28;99299.47;;;7.76;82.78
73594;BME280;64760;53.404;23.498;2023-03-21T07:32:56;99302.94;;;7.77;82.24
73594;BME280;64760;53.404;23.498;2023-03-21T07:35:23;99301.94;;;7.78;81.89
73594;BME280;64760;53.404;23.498;2023-03-21T07:37:49;99306.53;;;7.84;81.92
73594;BME280;64760;53.404;23.498;2023-03-21T07:40:17;99305.44;;;7.78;82.51
73594;BME280;64760;53.404;23.498;2023-03-21T07:42:47;99306.34;;;8.07;81.57
73594;BME280;64760;53.404;23.498;2023-03-21T07:45:20;99306.16;;;8.08;80.43
73594;BME280;64760;53.404;23.498;2023-03-21T07:47:49;99310.53;;;7.94;80.88
73594;BME280;64760;53.404;23.498;2023-03-21T07:50:18;99315.72;;;7.81;81.29
73594;BME280;64760;53.404;23.498;2023-03-21T07:52:45;99309.75;;;7.79;81.87
73594;BME280;64760;53.404;23.498;2023-03-21T07:55:11;99317.16;;;7.63;81.35
73594;BME280;64760;53.404;23.498;2023-03-21T07:57:39;99315.34;;;7.84;82.09
73594;BME280;64760;53.404;23.498;2023-03-21T08:00:06;99311.97;;;7.97;80.33
73594;BME280;64760;53.404;23.498;2023-03-21T08:02:39;99323.59;;;7.89;81.09
73594;BME280;64760;53.404;23.498;2023-03-21T08:05:06;99321.94;;;7.88;80.44
73594;BME280;64760;53.404;23.498;2023-03-21T08:07:33;99324.16;;;7.99;79.65
73594;BME280;64760;53.404;23.498;2023-03-21T08:10:00;99318.91;;;8.13;78.73
73594;BME280;64760;53.404;23.498;2023-03-21T08:12:27;99310.94;;;8.34;79.35
73594;BME280;64760;53.404;23.498;2023-03-21T08:14:54;99317.69;;;8.58;77.41
73594;BME280;64760;53.404;23.498;2023-03-21T08:17:21;99319.34;;;8.59;76.85
73594;BME280;64760;53.404;23.498;2023-03-21T08:19:48;99317.38;;;8.67;75.38
73594;BME280;64760;53.404;23.498;2023-03-21T08:22:14;99311.13;;;8.60;76.13
73594;BME280;64760;53.404;23.498;2023-03-21T08:24:41;99311.38;;;8.65;75.44
73594;BME280;64760;53.404;23.498;2023-03-21T08:27:08;99310.41;;;8.45;75.51
73594;BME280;64760;53.404;23.498;2023-03-21T08:29:34;99318.53;;;8.37;75.69
73594;BME280;64760;53.404;23.498;2023-03-21T08:32:07;99318.75;;;8.35;76.52
73594;BME280;64760;53.404;23.498;2023-03-21T08:34:33;99330.13;;;8.23;76.64
73594;BME280;64760;53.404;23.498;2023-03-21T08:37:01;99319.88;;;8.26;76.36
73594;BME280;64760;53.404;23.498;2023-03-21T08:39:28;99327.22;;;8.24;76.69
73594;BME280;64760;53.404;23.498;2023-03-21T08:41:55;99329.09;;;8.24;77.43
73594;BME280;64760;53.404;23.498;2023-03-21T08:44:22;99341.53;;;7.95;76.54
73594;BME280;64760;53.404;23.498;2023-03-21T08:46:50;99344.25;;;7.81;78.19
73594;BME280;64760;53.404;23.498;2023-03-21T08:49:16;99347.75;;;7.81;78.07
73594;BME280;64760;53.404;23.498;2023-03-21T08:51:43;99341.16;;;7.98;77.32
73594;BME280;64760;53.404;23.498;2023-03-21T08:54:20;99357.13;;;8.13;76.81
73594;BME280;64760;53.404;23.498;2023-03-21T08:56:48;99347.50;;;7.97;77.82
73594;BME280;64760;53.404;23.498;2023-03-21T08:59:15;99358.63;;;8.01;78.07
73594;BME280;64760;53.404;23.498;2023-03-21T09:01:42;99361.06;;;7.96;78.04
73594;BME280;64760;53.404;23.498;2023-03-21T09:04:10;99363.06;;;7.94;78.60
73594;BME280;64760;53.404;23.498;2023-03-21T09:06:37;99356.69;;;7.74;79.81
73594;BME280;64760;53.404;23.498;2023-03-21T09:09:06;99371.09;;;7.94;79.58
73594;BME280;64760;53.404;23.498;2023-03-21T09:11:34;99368.78;;;7.91;80.44
73594;BME280;64760;53.404;23.498;2023-03-21T09:14:00;99378.34;;;7.64;81.56
73594;BME280;64760;53.404;23.498;2023-03-21T09:16:29;99371.06;;;7.29;81.49
73594;BME280;64760;53.404;23.498;2023-03-21T09:18:56;99388.66;;;7.38;82.37
73594;BME280;64760;53.404;23.498;2023-03-21T09:21:26;99392.16;;;7.24;79.38
73594;BME280;64760;53.404;23.498;2023-03-21T09:23:54;99382.41;;;7.31;78.42
73594;BME280;64760;53.404;23.498;2023-03-21T09:26:25;99388.56;;;7.46;77.42
73594;BME280;64760;53.404;23.498;2023-03-21T09:28:55;99388.28;;;7.55;76.52
73594;BME280;64760;53.404;23.498;2023-03-21T09:31:24;99386.88;;;7.74;75.87
73594;BME280;64760;53.404;23.498;2023-03-21T09:33:52;99388.16;;;7.78;75.31
73594;BME280;64760;53.404;23.498;2023-03-21T09:36:19;99392.19;;;8.10;74.50
73594;BME280;64760;53.404;23.498;2023-03-21T09:38:47;99388.81;;;8.37;73.08
73594;BME280;64760;53.404;23.498;2023-03-21T09:46:46;99374.59;;;8.79;68.57
73594;BME280;64760;53.404;23.498;2023-03-21T09:49:28;99373.19;;;8.83;68.80
73594;BME280;64760;53.404;23.498;2023-03-21T09:51:58;99372.59;;;8.88;69.47
73594;BME280;64760;53.404;23.498;2023-03-21T09:54:27;99380.72;;;9.01;68.59
73594;BME280;64760;53.404;23.498;2023-03-21T09:57:00;99377.44;;;9.33;68.24
73594;BME280;64760;53.404;23.498;2023-03-21T09:59:36;99386.97;;;9.49;66.76
73594;BME280;64760;53.404;23.498;2023-03-21T10:04:45;99380.97;;;9.40;66.96
73594;BME280;64760;53.404;23.498;2023-03-21T10:07:12;99369.44;;;9.40;66.93
73594;BME280;64760;53.404;23.498;2023-03-21T10:09:44;99380.13;;;9.40;67.25
73594;BME280;64760;53.404;23.498;2023-03-21T10:12:20;99374.00;;;9.46;67.76
73594;BME280;64760;53.404;23.498;2023-03-21T10:14:49;99385.88;;;9.78;66.43
73594;BME280;64760;53.404;23.498;2023-03-21T10:17:48;99398.94;;;9.60;68.12
73594;BME280;64760;53.404;23.498;2023-03-21T10:20:43;99398.91;;;9.47;67.17
73594;BME280;64760;53.404;23.498;2023-03-21T10:23:15;99391.63;;;9.34;68.14
73594;BME280;64760;53.404;23.498;2023-03-21T10:25:48;99402.19;;;9.14;66.98
73594;BME280;64760;53.404;23.498;2023-03-21T10:28:22;99396.41;;;9.11;66.27
73594;BME280;64760;53.404;23.498;2023-03-21T10:30:56;99398.53;;;8.87;66.06
73594;BME280;64760;53.404;23.498;2023-03-21T10:33:27;99406.69;;;9.07;64.60
73594;BME280;64760;53.404;23.498;2023-03-21T10:36:04;99400.59;;;8.92;64.09
73594;BME280;64760;53.404;23.498;2023-03-21T10:38:32;99404.31;;;8.91;63.77
73594;BME280;64760;53.404;23.498;2023-03-21T10:41:01;99409.38;;;9.14;63.65
73594;BME280;64760;53.404;23.498;2023-03-21T10:43:36;99404.66;;;8.88;63.80
73594;BME280;64760;53.404;23.498;2023-03-21T10:46:11;99404.22;;;8.84;64.40
73594;BME280;64760;53.404;23.498;2023-03-21T10:48:41;99412.03;;;8.79;64.62
73594;BME280;64760;53.404;23.498;2023-03-21T10:51:20;99419.25;;;8.85;65.18
73594;BME280;64760;53.404;23.498;2023-03-21T10:53:54;99407.69;;;9.06;64.91
73594;BME280;64760;53.404;23.498;2023-03-21T10:56:22;99414.16;;;8.90;65.58
73594;BME280;64760;53.404;23.498;2023-03-21T10:58:51;99419.44;;;8.84;66.42
73594;BME280;64760;53.404;23.498;2023-03-21T11:01:29;99411.91;;;8.94;66.24
73594;BME280;64760;53.404;23.498;2023-03-21T11:04:26;99423.72;;;8.78;65.68
73594;BME280;64760;53.404;23.498;2023-03-21T11:07:04;99427.88;;;8.60;66.67
73594;BME280;64760;53.404;23.498;2023-03-21T11:09:53;99419.88;;;8.60;66.82
73594;BME280;64760;53.404;23.498;2023-03-21T11:12:35;99430.06;;;8.77;65.90
73594;BME280;64760;53.404;23.498;2023-03-21T11:15:30;99424.69;;;8.71;67.33
73594;BME280;64760;53.404;23.498;2023-03-21T11:17:58;99431.84;;;8.91;67.33
73594;BME280;64760;53.404;23.498;2023-03-21T11:20:28;99431.50;;;9.01;67.22
73594;BME280;64760;53.404;23.498;2023-03-21T11:22:56;99423.31;;;9.03;66.04
73594;BME280;64760;53.404;23.498;2023-03-21T11:25:26;99421.53;;;9.16;66.19
73594;BME280;64760;53.404;23.498;2023-03-21T11:27:56;99420.84;;;9.08;66.12
73594;BME280;64760;53.404;23.498;2023-03-21T11:30:26;99422.88;;;9.27;66.30
73594;BME280;64760;53.404;23.498;2023-03-21T11:32:57;99424.19;;;9.44;65.54
73594;BME280;64760;53.404;23.498;2023-03-21T11:35:32;99422.78;;;9.48;64.98
73594;BME280;64760;53.404;23.498;2023-03-21T11:37:59;99425.88;;;9.52;63.74
73594;BME280;64760;53.404;23.498;2023-03-21T11:43:29;99420.41;;;9.66;62.08
73594;BME280;64760;53.404;23.498;2023-03-21T11:45:58;99415.50;;;9.70;61.75
73594;BME280;64760;53.404;23.498;2023-03-21T11:48:27;99427.19;;;9.62;61.36
73594;BME280;64760;53.404;23.498;2023-03-21T11:51:03;99419.91;;;9.50;61.44
73594;BME280;64760;53.404;23.498;2023-03-21T11:53:48;99426.84;;;9.37;61.76
73594;BME280;64760;53.404;23.498;2023-03-21T11:56:28;99420.53;;;9.17;61.83
73594;BME280;64760;53.404;23.498;2023-03-21T11:59:15;99425.56;;;9.33;62.45
73594;BME280;64760;53.404;23.498;2023-03-21T12:01:56;99426.06;;;9.16;62.60
73594;BME280;64760;53.404;23.498;2023-03-21T12:04:39;99427.44;;;9.05;61.78
73594;BME280;64760;53.404;23.498;2023-03-21T12:15:53;99413.91;;;9.13;62.42
73594;BME280;64760;53.404;23.498;2023-03-21T12:21:18;99426.13;;;9.22;61.28
73594;BME280;64760;53.404;23.498;2023-03-21T12:24:02;99427.81;;;9.30;62.10
73594;BME280;64760;53.404;23.498;2023-03-21T12:40:56;99418.94;;;9.64;61.43
73594;BME280;64760;53.404;23.498;2023-03-21T12:43:38;99417.69;;;9.60;61.78
73594;BME280;64760;53.404;23.498;2023-03-21T12:46:16;99429.84;;;9.28;62.75
73594;BME280;64760;53.404;23.498;2023-03-21T12:49:14;99428.66;;;9.03;64.00
73594;BME280;64760;53.404;23.498;2023-03-21T12:51:56;99426.13;;;8.94;63.79
73594;BME280;64760;53.404;23.498;2023-03-21T12:54:35;99419.81;;;8.81;64.28
73594;BME280;64760;53.404;23.498;2023-03-21T12:59:52;99425.94;;;8.75;64.69
73594;BME280;64760;53.404;23.498;2023-03-21T13:02:52;99426.84;;;8.82;64.23
73594;BME280;64760;53.404;23.498;2023-03-21T13:05:31;99421.38;;;8.69;64.21
73594;BME280;64760;53.404;23.498;2023-03-21T13:08:15;99427.84;;;8.81;64.02
73594;BME280;64760;53.404;23.498;2023-03-21T13:10:44;99410.63;;;8.62;64.34
73594;BME280;64760;53.404;23.498;2023-03-21T13:13:38;99427.97;;;8.73;64.50
73594;BME280;64760;53.404;23.498;2023-03-21T13:16:29;99424.47;;;8.93;64.34
73594;BME280;64760;53.404;23.498;2023-03-21T13:24:48;99422.13;;;9.12;62.83
73594;BME280;64760;53.404;23.498;2023-03-21T13:27:24;99424.16;;;9.10;61.31
73594;BME280;64760;53.404;23.498;2023-03-21T13:32:38;99423.31;;;9.03;61.33
73594;BME280;64760;53.404;23.498;2023-03-21T13:37:39;99418.88;;;9.16;62.74
73594;BME280;64760;53.404;23.498;2023-03-21T13:40:20;99426.41;;;9.34;61.88
73594;BME280;64760;53.404;23.498;2023-03-21T13:42:54;99424.72;;;9.26;61.83
73594;BME280;64760;53.404;23.498;2023-03-21T13:45:31;99422.22;;;9.25;61.65
73594;BME280;64760;53.404;23.498;2023-03-21T13:48:03;99420.38;;;9.25;61.59
73594;BME280;64760;53.404;23.498;2023-03-21T13:50:38;99425.91;;;9.24;62.29
73594;BME280;64760;53.404;23.498;2023-03-21T13:53:20;99419.47;;;9.46;61.38
73594;BME280;64760;53.404;23.498;2023-03-21T13:56:07;99428.88;;;9.08;60.27
73594;BME280;64760;53.404;23.498;2023-03-21T14:01:40;99441.66;;;9.12;60.74
73594;BME280;64760;53.404;23.498;2023-03-21T14:04:26;99432.00;;;8.83;62.46
73594;BME280;64760;53.404;23.498;2023-03-21T14:07:01;99432.88;;;8.69;63.32
73594;BME280;64760;53.404;23.498;2023-03-21T14:09:39;99443.41;;;8.99;62.35
73594;BME280;64760;53.404;23.498;2023-03-21T14:12:12;99432.88;;;8.90;61.29
73594;BME280;64760;53.404;23.498;2023-03-21T14:14:43;99423.31;;;8.81;61.16
73594;BME280;64760;53.404;23.498;2023-03-21T14:17:37;99442.59;;;8.98;62.13
73594;BME280;64760;53.404;23.498;2023-03-21T14:20:19;99434.31;;;8.93;62.00
73594;BME280;64760;53.404;23.498;2023-03-21T14:22:47;99432.44;;;8.87;61.51
73594;BME280;64760;53.404;23.498;2023-03-21T14:25:14;99440.59;;;8.79;61.29
73594;BME280;64760;53.404;23.498;2023-03-21T14:27:45;99435.16;;;8.72;60.86
73594;BME280;64760;53.404;23.498;2023-03-21T14:30:25;99452.50;;;8.55;62.54
73594;BME280;64760;53.404;23.498;2023-03-21T14:32:57;99441.94;;;8.47;62.52
73594;BME280;64760;53.404;23.498;2023-03-21T14:35:29;99438.59;;;8.45;62.18
73594;BME280;64760;53.404;23.498;2023-03-21T14:38:03;99448.28;;;8.46;61.89
73594;BME280;64760;53.404;23.498;2023-03-21T14:40:30;99434.34;;;8.51;61.68
73594;BME280;64760;53.404;23.498;2023-03-21T14:43:03;99448.16;;;8.54;61.36
73594;BME280;64760;53.404;23.498;2023-03-21T14:45:34;99438.84;;;8.29;61.65
73594;BME280;64760;53.404;23.498;2023-03-21T14:48:12;99446.94;;;8.35;61.14
73594;BME280;64760;53.404;23.498;2023-03-21T14:50:44;99438.53;;;8.38;60.39
73594;BME280;64760;53.404;23.498;2023-03-21T14:53:18;99431.94;;;8.20;61.03
73594;BME280;64760;53.404;23.498;2023-03-21T14:55:56;99440.50;;;8.30;61.32
73594;BME280;64760;53.404;23.498;2023-03-21T14:58:24;99447.63;;;8.44;59.99
73594;BME280;64760;53.404;23.498;2023-03-21T15:00:52;99440.81;;;8.41;60.98
73594;BME280;64760;53.404;23.498;2023-03-21T15:03:22;99442.63;;;8.34;60.15